sensor_id;sensor_type;location;lat;lon;timestamp;P1;durP1;ratioP1;P2;durP2;ratioP2
75129;SDS011;63703;44.716;37.846;2022-12-18T00:01:56;3.25;;;1.17;;
75129;SDS011;63703;44.716;37.846;2022-12-18T00:04:24;2.33;;;1.55;;
75129;SDS011;63703;44.716;37.846;2022-12-18T00:06:52;2.45;;;1.65;;
75129;SDS011;63703;44.716;37.846;2022-12-18T00:09:18;2.10;;;1.15;;
75129;SDS011;63703;44.716;37.846;2022-12-18T00:11:45;1.70;;;0.45;;
75129;SDS011;63703;44.716;37.846;2022-12-18T00:14:11;3.47;;;1.60;;
75129;SDS011;63703;44.716;37.846;2022-12-18T00:16:38;2.72;;;1.00;;
75129;SDS011;63703;44.716;37.846;2022-12-18T00:19:05;2.00;;;0.68;;
75129;SDS011;63703;44.716;37.846;2022-12-18T00:21:32;3.33;;;0.82;;
75129;SDS011;63703;44.716;37.846;2022-12-18T00:23:59;2.67;;;0.80;;
75129;SDS011;63703;44.716;37.846;2022-12-18T00:26:27;4.15;;;0.70;;
75129;SDS011;63703;44.716;37.846;2022-12-18T00:28:58;2.78;;;1.25;;
75129;SDS011;63703;44.716;37.846;2022-12-18T00:31:26;2.40;;;0.60;;
75129;SDS011;63703;44.716;37.846;2022-12-18T00:33:55;2.15;;;0.85;;
75129;SDS011;63703;44.716;37.846;2022-12-18T00:36:23;2.65;;;1.15;;
75129;SDS011;63703;44.716;37.846;2022-12-18T00:38:54;2.38;;;0.77;;
75129;SDS011;63703;44.716;37.846;2022-12-18T00:41:21;2.13;;;0.63;;
75129;SDS011;63703;44.716;37.846;2022-12-18T00:44:06;2.40;;;0.80;;
75129;SDS011;63703;44.716;37.846;2022-12-18T00:46:34;2.47;;;1.13;;
75129;SDS011;63703;44.716;37.846;2022-12-18T00:49:00;2.72;;;1.42;;
75129;SDS011;63703;44.716;37.846;2022-12-18T00:51:27;2.45;;;0.80;;
75129;SDS011;63703;44.716;37.846;2022-12-18T00:53:53;2.28;;;0.90;;
75129;SDS011;63703;44.716;37.846;2022-12-18T00:56:22;2.45;;;1.25;;
75129;SDS011;63703;44.716;37.846;2022-12-18T00:58:49;3.97;;;0.65;;
75129;SDS011;63703;44.716;37.846;2022-12-18T01:01:15;2.63;;;1.13;;
75129;SDS011;63703;44.716;37.846;2022-12-18T01:03:41;1.85;;;0.68;;
75129;SDS011;63703;44.716;37.846;2022-12-18T01:06:09;2.70;;;1.67;;
75129;SDS011;63703;44.716;37.846;2022-12-18T01:08:37;2.20;;;1.05;;
75129;SDS011;63703;44.716;37.846;2022-12-18T01:11:11;2.80;;;1.67;;
75129;SDS011;63703;44.716;37.846;2022-12-18T01:13:41;3.90;;;1.42;;
75129;SDS011;63703;44.716;37.846;2022-12-18T01:16:08;2.03;;;1.08;;
75129;SDS011;63703;44.716;37.846;2022-12-18T01:18:36;2.45;;;0.98;;
75129;SDS011;63703;44.716;37.846;2022-12-18T01:21:05;3.33;;;1.55;;
75129;SDS011;63703;44.716;37.846;2022-12-18T01:23:36;2.90;;;1.15;;
75129;SDS011;63703;44.716;37.846;2022-12-18T01:26:10;2.00;;;0.88;;
75129;SDS011;63703;44.716;37.846;2022-12-18T01:28:38;2.45;;;1.33;;
75129;SDS011;63703;44.716;37.846;2022-12-18T01:31:15;2.83;;;1.23;;
75129;SDS011;63703;44.716;37.846;2022-12-18T01:33:49;1.90;;;0.65;;
75129;SDS011;63703;44.716;37.846;2022-12-18T01:36:27;2.33;;;0.70;;
75129;SDS011;63703;44.716;37.846;2022-12-18T01:38:54;2.08;;;1.02;;
75129;SDS011;63703;44.716;37.846;2022-12-18T01:41:22;2.78;;;1.13;;
75129;SDS011;63703;44.716;37.846;2022-12-18T01:46:21;1.90;;;0.82;;
75129;SDS011;63703;44.716;37.846;2022-12-18T01:48:53;2.45;;;0.60;;
75129;SDS011;63703;44.716;37.846;2022-12-18T01:51:23;1.98;;;0.98;;
75129;SDS011;63703;44.716;37.846;2022-12-18T01:53:50;2.60;;;1.80;;
75129;SDS011;63703;44.716;37.846;2022-12-18T01:56:17;2.92;;;0.57;;
75129;SDS011;63703;44.716;37.846;2022-12-18T02:01:24;2.05;;;0.50;;
75129;SDS011;63703;44.716;37.846;2022-12-18T02:03:50;2.45;;;1.02;;
75129;SDS011;63703;44.716;37.846;2022-12-18T02:06:31;2.85;;;0.90;;
75129;SDS011;63703;44.716;37.846;2022-12-18T02:09:09;2.92;;;1.73;;
75129;SDS011;63703;44.716;37.846;2022-12-18T02:11:44;2.10;;;0.70;;
75129;SDS011;63703;44.716;37.846;2022-12-18T02:17:19;2.38;;;0.95;;
75129;SDS011;63703;44.716;37.846;2022-12-18T02:28:04;3.60;;;0.85;;
75129;SDS011;63703;44.716;37.846;2022-12-18T02:30:35;3.65;;;1.23;;
75129;SDS011;63703;44.716;37.846;2022-12-18T02:33:04;2.38;;;0.88;;
75129;SDS011;63703;44.716;37.846;2022-12-18T02:35:32;1.85;;;0.70;;
75129;SDS011;63703;44.716;37.846;2022-12-18T02:38:01;4.00;;;1.10;;
75129;SDS011;63703;44.716;37.846;2022-12-18T02:40:31;3.35;;;2.03;;
75129;SDS011;63703;44.716;37.846;2022-12-18T02:43:02;2.85;;;1.33;;
75129;SDS011;63703;44.716;37.846;2022-12-18T02:45:36;5.03;;;1.10;;
75129;SDS011;63703;44.716;37.846;2022-12-18T02:48:12;3.40;;;1.45;;
75129;SDS011;63703;44.716;37.846;2022-12-18T02:50:44;2.97;;;1.95;;
75129;SDS011;63703;44.716;37.846;2022-12-18T02:56:05;2.15;;;0.77;;
75129;SDS011;63703;44.716;37.846;2022-12-18T03:01:50;3.00;;;2.00;;
75129;SDS011;63703;44.716;37.846;2022-12-18T03:04:22;2.45;;;0.75;;
75129;SDS011;63703;44.716;37.846;2022-12-18T03:06:54;3.00;;;1.15;;
75129;SDS011;63703;44.716;37.846;2022-12-18T03:09:31;2.67;;;1.27;;
75129;SDS011;63703;44.716;37.846;2022-12-18T03:12:35;2.88;;;0.75;;
75129;SDS011;63703;44.716;37.846;2022-12-18T03:17:35;4.32;;;1.30;;
75129;SDS011;63703;44.716;37.846;2022-12-18T03:20:05;3.42;;;1.08;;
75129;SDS011;63703;44.716;37.846;2022-12-18T03:22:37;3.08;;;1.20;;
75129;SDS011;63703;44.716;37.846;2022-12-18T03:25:07;2.97;;;0.65;;
75129;SDS011;63703;44.716;37.846;2022-12-18T03:27:37;4.95;;;1.23;;
75129;SDS011;63703;44.716;37.846;2022-12-18T03:30:11;3.10;;;1.00;;
75129;SDS011;63703;44.716;37.846;2022-12-18T03:32:43;3.25;;;1.08;;
75129;SDS011;63703;44.716;37.846;2022-12-18T03:35:23;4.20;;;1.30;;
75129;SDS011;63703;44.716;37.846;2022-12-18T03:37:55;4.65;;;1.33;;
75129;SDS011;63703;44.716;37.846;2022-12-18T03:40:25;3.53;;;1.45;;
75129;SDS011;63703;44.716;37.846;2022-12-18T03:43:19;3.30;;;1.17;;
75129;SDS011;63703;44.716;37.846;2022-12-18T03:48:42;5.10;;;2.47;;
75129;SDS011;63703;44.716;37.846;2022-12-18T03:51:24;2.35;;;0.88;;
75129;SDS011;63703;44.716;37.846;2022-12-18T03:54:00;2.05;;;0.88;;
75129;SDS011;63703;44.716;37.846;2022-12-18T03:56:34;4.07;;;1.90;;
75129;SDS011;63703;44.716;37.846;2022-12-18T03:59:06;3.53;;;2.13;;
75129;SDS011;63703;44.716;37.846;2022-12-18T04:01:40;2.65;;;0.65;;
75129;SDS011;63703;44.716;37.846;2022-12-18T04:04:13;3.33;;;0.90;;
75129;SDS011;63703;44.716;37.846;2022-12-18T04:06:42;2.60;;;0.80;;
75129;SDS011;63703;44.716;37.846;2022-12-18T04:09:11;3.05;;;0.98;;
75129;SDS011;63703;44.716;37.846;2022-12-18T04:11:42;3.30;;;1.85;;
75129;SDS011;63703;44.716;37.846;2022-12-18T04:14:13;5.68;;;1.50;;
75129;SDS011;63703;44.716;37.846;2022-12-18T04:16:40;5.03;;;1.67;;
75129;SDS011;63703;44.716;37.846;2022-12-18T04:19:09;3.00;;;1.33;;
75129;SDS011;63703;44.716;37.846;2022-12-18T04:21:39;3.15;;;1.05;;
75129;SDS011;63703;44.716;37.846;2022-12-18T04:24:05;3.45;;;1.35;;
75129;SDS011;63703;44.716;37.846;2022-12-18T04:26:34;3.80;;;1.20;;
75129;SDS011;63703;44.716;37.846;2022-12-18T04:29:22;3.53;;;1.58;;
75129;SDS011;63703;44.716;37.846;2022-12-18T04:31:48;5.40;;;1.35;;
75129;SDS011;63703;44.716;37.846;2022-12-18T04:34:15;3.83;;;1.42;;
75129;SDS011;63703;44.716;37.846;2022-12-18T04:36:47;2.33;;;0.80;;
75129;SDS011;63703;44.716;37.846;2022-12-18T04:39:14;3.58;;;1.55;;
75129;SDS011;63703;44.716;37.846;2022-12-18T04:41:43;3.22;;;1.38;;
75129;SDS011;63703;44.716;37.846;2022-12-18T04:44:11;2.75;;;0.80;;
75129;SDS011;63703;44.716;37.846;2022-12-18T04:46:37;4.07;;;1.73;;
75129;SDS011;63703;44.716;37.846;2022-12-18T04:49:03;3.97;;;1.48;;
75129;SDS011;63703;44.716;37.846;2022-12-18T04:51:29;3.15;;;1.27;;
75129;SDS011;63703;44.716;37.846;2022-12-18T04:53:55;3.25;;;0.98;;
75129;SDS011;63703;44.716;37.846;2022-12-18T04:56:21;4.30;;;0.90;;
75129;SDS011;63703;44.716;37.846;2022-12-18T04:58:47;4.00;;;1.65;;
75129;SDS011;63703;44.716;37.846;2022-12-18T05:01:14;3.20;;;1.45;;
75129;SDS011;63703;44.716;37.846;2022-12-18T05:03:41;4.05;;;2.28;;
75129;SDS011;63703;44.716;37.846;2022-12-18T05:06:07;2.92;;;1.08;;
75129;SDS011;63703;44.716;37.846;2022-12-18T05:08:34;4.28;;;2.10;;
75129;SDS011;63703;44.716;37.846;2022-12-18T05:11:04;4.13;;;2.08;;
75129;SDS011;63703;44.716;37.846;2022-12-18T05:13:33;4.38;;;1.02;;
75129;SDS011;63703;44.716;37.846;2022-12-18T05:15:59;3.70;;;1.10;;
75129;SDS011;63703;44.716;37.846;2022-12-18T05:18:26;3.40;;;1.30;;
75129;SDS011;63703;44.716;37.846;2022-12-18T05:20:52;3.88;;;1.27;;
75129;SDS011;63703;44.716;37.846;2022-12-18T05:23:19;3.38;;;1.55;;
75129;SDS011;63703;44.716;37.846;2022-12-18T05:25:57;2.67;;;1.13;;
75129;SDS011;63703;44.716;37.846;2022-12-18T05:28:25;3.17;;;1.45;;
75129;SDS011;63703;44.716;37.846;2022-12-18T05:30:54;4.35;;;1.40;;
75129;SDS011;63703;44.716;37.846;2022-12-18T05:33:23;3.58;;;1.35;;
75129;SDS011;63703;44.716;37.846;2022-12-18T05:35:51;4.10;;;1.42;;
75129;SDS011;63703;44.716;37.846;2022-12-18T05:38:18;3.20;;;1.20;;
75129;SDS011;63703;44.716;37.846;2022-12-18T05:40:45;3.67;;;0.93;;
75129;SDS011;63703;44.716;37.846;2022-12-18T05:43:11;3.65;;;1.20;;
75129;SDS011;63703;44.716;37.846;2022-12-18T05:45:39;4.90;;;1.67;;
75129;SDS011;63703;44.716;37.846;2022-12-18T05:48:06;2.78;;;1.27;;
75129;SDS011;63703;44.716;37.846;2022-12-18T05:50:36;3.83;;;1.85;;
75129;SDS011;63703;44.716;37.846;2022-12-18T05:53:04;3.17;;;0.98;;
75129;SDS011;63703;44.716;37.846;2022-12-18T05:55:33;3.70;;;1.15;;
75129;SDS011;63703;44.716;37.846;2022-12-18T05:58:01;3.05;;;1.40;;
75129;SDS011;63703;44.716;37.846;2022-12-18T06:00:28;3.80;;;1.40;;
75129;SDS011;63703;44.716;37.846;2022-12-18T06:02:54;3.78;;;1.13;;
75129;SDS011;63703;44.716;37.846;2022-12-18T06:05:20;3.15;;;1.90;;
75129;SDS011;63703;44.716;37.846;2022-12-18T06:07:46;4.07;;;1.33;;
75129;SDS011;63703;44.716;37.846;2022-12-18T06:10:11;3.13;;;1.50;;
75129;SDS011;63703;44.716;37.846;2022-12-18T06:12:37;5.60;;;1.38;;
75129;SDS011;63703;44.716;37.846;2022-12-18T06:15:03;5.07;;;2.25;;
75129;SDS011;63703;44.716;37.846;2022-12-18T06:17:30;5.38;;;1.35;;
75129;SDS011;63703;44.716;37.846;2022-12-18T06:19:57;4.43;;;1.38;;
75129;SDS011;63703;44.716;37.846;2022-12-18T06:22:23;4.80;;;2.05;;
75129;SDS011;63703;44.716;37.846;2022-12-18T06:24:49;4.70;;;0.95;;
75129;SDS011;63703;44.716;37.846;2022-12-18T06:27:15;4.07;;;0.88;;
75129;SDS011;63703;44.716;37.846;2022-12-18T06:29:41;4.95;;;1.10;;
75129;SDS011;63703;44.716;37.846;2022-12-18T06:32:07;5.50;;;1.60;;
75129;SDS011;63703;44.716;37.846;2022-12-18T06:34:34;3.97;;;1.40;;
75129;SDS011;63703;44.716;37.846;2022-12-18T06:37:02;3.20;;;1.27;;
75129;SDS011;63703;44.716;37.846;2022-12-18T06:39:28;4.00;;;1.33;;
75129;SDS011;63703;44.716;37.846;2022-12-18T06:41:54;5.43;;;1.55;;
75129;SDS011;63703;44.716;37.846;2022-12-18T06:44:20;3.80;;;1.38;;
75129;SDS011;63703;44.716;37.846;2022-12-18T06:46:45;4.45;;;1.85;;
75129;SDS011;63703;44.716;37.846;2022-12-18T06:49:11;4.45;;;1.77;;
75129;SDS011;63703;44.716;37.846;2022-12-18T06:51:37;4.32;;;1.63;;
75129;SDS011;63703;44.716;37.846;2022-12-18T06:54:03;4.22;;;1.27;;
75129;SDS011;63703;44.716;37.846;2022-12-18T06:56:29;5.38;;;0.98;;
75129;SDS011;63703;44.716;37.846;2022-12-18T06:58:55;3.47;;;1.52;;
75129;SDS011;63703;44.716;37.846;2022-12-18T07:01:21;5.32;;;1.67;;
75129;SDS011;63703;44.716;37.846;2022-12-18T07:03:51;4.80;;;1.75;;
75129;SDS011;63703;44.716;37.846;2022-12-18T07:06:19;4.35;;;1.90;;
75129;SDS011;63703;44.716;37.846;2022-12-18T07:08:47;6.93;;;2.47;;
75129;SDS011;63703;44.716;37.846;2022-12-18T07:11:13;5.03;;;1.20;;
75129;SDS011;63703;44.716;37.846;2022-12-18T07:13:40;7.32;;;1.90;;
75129;SDS011;63703;44.716;37.846;2022-12-18T07:16:15;5.25;;;1.65;;
75129;SDS011;63703;44.716;37.846;2022-12-18T07:18:45;4.22;;;1.85;;
75129;SDS011;63703;44.716;37.846;2022-12-18T07:21:14;5.22;;;1.73;;
75129;SDS011;63703;44.716;37.846;2022-12-18T07:23:43;5.57;;;1.65;;
75129;SDS011;63703;44.716;37.846;2022-12-18T07:26:12;5.18;;;1.75;;
75129;SDS011;63703;44.716;37.846;2022-12-18T07:28:40;4.45;;;1.83;;
75129;SDS011;63703;44.716;37.846;2022-12-18T07:31:07;4.93;;;1.58;;
75129;SDS011;63703;44.716;37.846;2022-12-18T07:33:35;4.63;;;1.77;;
75129;SDS011;63703;44.716;37.846;2022-12-18T07:36:01;6.55;;;2.30;;
75129;SDS011;63703;44.716;37.846;2022-12-18T07:38:29;5.93;;;2.15;;
75129;SDS011;63703;44.716;37.846;2022-12-18T07:41:05;5.63;;;1.45;;
75129;SDS011;63703;44.716;37.846;2022-12-18T07:43:33;6.88;;;1.92;;
75129;SDS011;63703;44.716;37.846;2022-12-18T07:46:00;6.00;;;1.95;;
75129;SDS011;63703;44.716;37.846;2022-12-18T07:48:25;5.45;;;1.65;;
75129;SDS011;63703;44.716;37.846;2022-12-18T07:50:52;4.20;;;1.17;;
75129;SDS011;63703;44.716;37.846;2022-12-18T07:53:18;5.07;;;1.30;;
75129;SDS011;63703;44.716;37.846;2022-12-18T07:55:44;4.20;;;1.00;;
75129;SDS011;63703;44.716;37.846;2022-12-18T07:58:10;5.75;;;1.67;;
75129;SDS011;63703;44.716;37.846;2022-12-18T08:00:36;5.78;;;1.45;;
75129;SDS011;63703;44.716;37.846;2022-12-18T08:03:02;7.95;;;1.95;;
75129;SDS011;63703;44.716;37.846;2022-12-18T08:05:28;5.20;;;1.42;;
75129;SDS011;63703;44.716;37.846;2022-12-18T08:07:54;6.90;;;2.53;;
75129;SDS011;63703;44.716;37.846;2022-12-18T08:10:20;6.18;;;2.55;;
75129;SDS011;63703;44.716;37.846;2022-12-18T08:12:50;8.10;;;2.00;;
75129;SDS011;63703;44.716;37.846;2022-12-18T08:15:16;8.43;;;1.92;;
75129;SDS011;63703;44.716;37.846;2022-12-18T08:17:42;10.55;;;2.17;;
75129;SDS011;63703;44.716;37.846;2022-12-18T08:20:08;5.40;;;2.78;;
75129;SDS011;63703;44.716;37.846;2022-12-18T08:22:38;8.50;;;1.60;;
75129;SDS011;63703;44.716;37.846;2022-12-18T08:25:04;6.35;;;1.83;;
75129;SDS011;63703;44.716;37.846;2022-12-18T08:27:30;8.88;;;3.25;;
75129;SDS011;63703;44.716;37.846;2022-12-18T08:29:57;7.20;;;2.63;;
75129;SDS011;63703;44.716;37.846;2022-12-18T08:32:23;8.02;;;2.08;;
75129;SDS011;63703;44.716;37.846;2022-12-18T08:34:50;7.10;;;1.95;;
75129;SDS011;63703;44.716;37.846;2022-12-18T08:37:16;8.57;;;2.42;;
75129;SDS011;63703;44.716;37.846;2022-12-18T08:39:42;6.82;;;2.72;;
75129;SDS011;63703;44.716;37.846;2022-12-18T08:42:08;6.93;;;1.52;;
75129;SDS011;63703;44.716;37.846;2022-12-18T08:44:52;8.73;;;2.17;;
75129;SDS011;63703;44.716;37.846;2022-12-18T08:47:18;6.55;;;2.15;;
75129;SDS011;63703;44.716;37.846;2022-12-18T08:49:44;10.13;;;2.97;;
75129;SDS011;63703;44.716;37.846;2022-12-18T08:52:10;7.25;;;2.50;;
75129;SDS011;63703;44.716;37.846;2022-12-18T08:54:42;8.23;;;2.03;;
75129;SDS011;63703;44.716;37.846;2022-12-18T08:57:08;5.75;;;2.38;;
75129;SDS011;63703;44.716;37.846;2022-12-18T08:59:34;5.35;;;2.60;;
75129;SDS011;63703;44.716;37.846;2022-12-18T09:02:00;8.32;;;3.28;;
75129;SDS011;63703;44.716;37.846;2022-12-18T09:04:26;7.28;;;2.05;;
75129;SDS011;63703;44.716;37.846;2022-12-18T09:06:55;6.35;;;1.73;;
75129;SDS011;63703;44.716;37.846;2022-12-18T09:09:20;6.10;;;1.95;;
75129;SDS011;63703;44.716;37.846;2022-12-18T09:11:46;7.22;;;1.92;;
75129;SDS011;63703;44.716;37.846;2022-12-18T09:14:12;7.10;;;1.58;;
75129;SDS011;63703;44.716;37.846;2022-12-18T09:16:38;6.10;;;2.90;;
75129;SDS011;63703;44.716;37.846;2022-12-18T09:19:04;4.90;;;1.48;;
75129;SDS011;63703;44.716;37.846;2022-12-18T09:21:33;6.28;;;1.58;;
75129;SDS011;63703;44.716;37.846;2022-12-18T09:24:04;5.88;;;1.88;;
75129;SDS011;63703;44.716;37.846;2022-12-18T09:26:30;7.10;;;2.08;;
75129;SDS011;63703;44.716;37.846;2022-12-18T09:28:56;6.97;;;2.75;;
75129;SDS011;63703;44.716;37.846;2022-12-18T09:31:23;5.07;;;2.00;;
75129;SDS011;63703;44.716;37.846;2022-12-18T09:33:50;6.10;;;1.95;;
75129;SDS011;63703;44.716;37.846;2022-12-18T09:36:16;6.95;;;3.15;;
75129;SDS011;63703;44.716;37.846;2022-12-18T09:38:43;6.75;;;2.45;;
75129;SDS011;63703;44.716;37.846;2022-12-18T09:43:54;6.53;;;3.63;;
75129;SDS011;63703;44.716;37.846;2022-12-18T09:46:28;11.32;;;1.20;;
75129;SDS011;63703;44.716;37.846;2022-12-18T09:49:02;4.53;;;1.30;;
75129;SDS011;63703;44.716;37.846;2022-12-18T09:51:34;6.07;;;2.22;;
75129;SDS011;63703;44.716;37.846;2022-12-18T09:54:07;6.70;;;2.97;;
75129;SDS011;63703;44.716;37.846;2022-12-18T09:56:41;4.85;;;1.10;;
75129;SDS011;63703;44.716;37.846;2022-12-18T09:59:14;9.60;;;2.13;;
75129;SDS011;63703;44.716;37.846;2022-12-18T10:01:56;8.43;;;3.28;;
75129;SDS011;63703;44.716;37.846;2022-12-18T10:04:23;6.55;;;1.52;;
75129;SDS011;63703;44.716;37.846;2022-12-18T10:06:54;6.07;;;1.33;;
75129;SDS011;63703;44.716;37.846;2022-12-18T10:09:50;7.95;;;2.17;;
75129;SDS011;63703;44.716;37.846;2022-12-18T10:15:45;4.45;;;2.28;;
75129;SDS011;63703;44.716;37.846;2022-12-18T10:20:56;6.03;;;2.78;;
75129;SDS011;63703;44.716;37.846;2022-12-18T10:23:45;3.83;;;1.63;;
75129;SDS011;63703;44.716;37.846;2022-12-18T10:26:22;5.47;;;2.08;;
75129;SDS011;63703;44.716;37.846;2022-12-18T10:28:49;9.52;;;3.47;;
75129;SDS011;63703;44.716;37.846;2022-12-18T10:31:18;8.50;;;2.55;;
75129;SDS011;63703;44.716;37.846;2022-12-18T10:33:46;8.00;;;2.45;;
75129;SDS011;63703;44.716;37.846;2022-12-18T10:36:13;8.48;;;3.28;;
75129;SDS011;63703;44.716;37.846;2022-12-18T10:38:39;7.57;;;2.63;;
75129;SDS011;63703;44.716;37.846;2022-12-18T10:43:48;7.65;;;2.28;;
75129;SDS011;63703;44.716;37.846;2022-12-18T10:46:43;6.32;;;2.50;;
75129;SDS011;63703;44.716;37.846;2022-12-18T10:49:24;6.82;;;1.95;;
75129;SDS011;63703;44.716;37.846;2022-12-18T10:52:04;7.38;;;2.38;;
75129;SDS011;63703;44.716;37.846;2022-12-18T10:54:39;5.47;;;1.65;;
75129;SDS011;63703;44.716;37.846;2022-12-18T10:57:29;9.73;;;2.30;;
75129;SDS011;63703;44.716;37.846;2022-12-18T10:59:56;8.45;;;3.03;;
75129;SDS011;63703;44.716;37.846;2022-12-18T11:02:25;8.35;;;2.42;;
75129;SDS011;63703;44.716;37.846;2022-12-18T11:04:58;7.18;;;2.25;;
75129;SDS011;63703;44.716;37.846;2022-12-18T11:07:24;9.10;;;4.22;;
75129;SDS011;63703;44.716;37.846;2022-12-18T11:10:02;6.50;;;2.38;;
75129;SDS011;63703;44.716;37.846;2022-12-18T11:12:28;7.60;;;2.53;;
75129;SDS011;63703;44.716;37.846;2022-12-18T11:14:57;7.78;;;2.83;;
75129;SDS011;63703;44.716;37.846;2022-12-18T11:19:59;6.82;;;2.25;;
75129;SDS011;63703;44.716;37.846;2022-12-18T11:22:31;8.88;;;2.55;;
75129;SDS011;63703;44.716;37.846;2022-12-18T11:27:31;6.95;;;2.47;;
75129;SDS011;63703;44.716;37.846;2022-12-18T11:30:13;7.30;;;2.08;;
75129;SDS011;63703;44.716;37.846;2022-12-18T11:33:36;5.25;;;2.05;;
75129;SDS011;63703;44.716;37.846;2022-12-18T11:38:20;9.82;;;1.95;;
75129;SDS011;63703;44.716;37.846;2022-12-18T11:43:29;7.28;;;4.40;;
75129;SDS011;63703;44.716;37.846;2022-12-18T11:51:34;7.82;;;2.40;;
75129;SDS011;63703;44.716;37.846;2022-12-18T11:54:12;8.57;;;2.67;;
75129;SDS011;63703;44.716;37.846;2022-12-18T11:56:44;12.70;;;2.80;;
75129;SDS011;63703;44.716;37.846;2022-12-18T12:02:09;9.82;;;2.88;;
75129;SDS011;63703;44.716;37.846;2022-12-18T12:05:00;12.02;;;3.10;;
75129;SDS011;63703;44.716;37.846;2022-12-18T12:07:58;9.93;;;2.88;;
75129;SDS011;63703;44.716;37.846;2022-12-18T12:21:41;21.80;;;9.48;;
75129;SDS011;63703;44.716;37.846;2022-12-18T12:26:52;19.88;;;10.57;;
75129;SDS011;63703;44.716;37.846;2022-12-18T12:32:17;14.82;;;7.72;;
75129;SDS011;63703;44.716;37.846;2022-12-18T12:35:14;18.20;;;10.55;;
75129;SDS011;63703;44.716;37.846;2022-12-18T12:38:00;17.33;;;8.95;;
75129;SDS011;63703;44.716;37.846;2022-12-18T12:40:39;15.70;;;8.02;;
75129;SDS011;63703;44.716;37.846;2022-12-18T12:43:19;14.15;;;6.60;;
75129;SDS011;63703;44.716;37.846;2022-12-18T12:45:47;17.75;;;7.68;;
75129;SDS011;63703;44.716;37.846;2022-12-18T12:51:21;16.38;;;6.88;;
75129;SDS011;63703;44.716;37.846;2022-12-18T12:53:49;14.00;;;7.07;;
75129;SDS011;63703;44.716;37.846;2022-12-18T12:56:20;18.02;;;7.05;;
75129;SDS011;63703;44.716;37.846;2022-12-18T13:04:29;18.60;;;7.72;;
75129;SDS011;63703;44.716;37.846;2022-12-18T13:07:06;14.07;;;6.38;;
75129;SDS011;63703;44.716;37.846;2022-12-18T13:13:04;16.30;;;7.22;;
75129;SDS011;63703;44.716;37.846;2022-12-18T13:15:41;18.83;;;8.55;;
75129;SDS011;63703;44.716;37.846;2022-12-18T13:20:45;20.70;;;9.23;;
75129;SDS011;63703;44.716;37.846;2022-12-18T13:29:02;28.40;;;10.43;;
75129;SDS011;63703;44.716;37.846;2022-12-18T13:31:12;29.83;;;11.15;;
75129;SDS011;63703;44.716;37.846;2022-12-18T13:33:43;26.35;;;11.45;;
75129;SDS011;63703;44.716;37.846;2022-12-18T13:47:33;41.42;;;14.88;;
75129;SDS011;63703;44.716;37.846;2022-12-18T13:50:20;37.17;;;13.05;;
75129;SDS011;63703;44.716;37.846;2022-12-18T13:52:51;32.00;;;11.88;;
75129;SDS011;63703;44.716;37.846;2022-12-18T13:55:18;42.58;;;13.50;;
75129;SDS011;63703;44.716;37.846;2022-12-18T13:57:47;35.00;;;13.18;;
75129;SDS011;63703;44.716;37.846;2022-12-18T14:00:23;42.92;;;15.02;;
75129;SDS011;63703;44.716;37.846;2022-12-18T14:02:57;39.95;;;14.23;;
75129;SDS011;63703;44.716;37.846;2022-12-18T14:05:27;42.13;;;13.63;;
75129;SDS011;63703;44.716;37.846;2022-12-18T14:07:53;35.45;;;15.63;;
75129;SDS011;63703;44.716;37.846;2022-12-18T14:10:20;36.78;;;13.70;;
75129;SDS011;63703;44.716;37.846;2022-12-18T14:12:48;35.03;;;12.73;;
75129;SDS011;63703;44.716;37.846;2022-12-18T14:21:02;31.95;;;12.27;;
75129;SDS011;63703;44.716;37.846;2022-12-18T14:23:39;28.38;;;10.65;;
75129;SDS011;63703;44.716;37.846;2022-12-18T14:28:55;30.90;;;10.60;;
75129;SDS011;63703;44.716;37.846;2022-12-18T14:31:43;32.80;;;10.52;;
75129;SDS011;63703;44.716;37.846;2022-12-18T14:34:15;29.38;;;10.57;;
75129;SDS011;63703;44.716;37.846;2022-12-18T14:36:44;25.38;;;9.20;;
75129;SDS011;63703;44.716;37.846;2022-12-18T14:39:18;21.85;;;8.40;;
75129;SDS011;63703;44.716;37.846;2022-12-18T14:41:44;21.30;;;9.02;;
75129;SDS011;63703;44.716;37.846;2022-12-18T14:44:11;22.85;;;8.52;;
75129;SDS011;63703;44.716;37.846;2022-12-18T14:46:39;22.02;;;8.10;;
75129;SDS011;63703;44.716;37.846;2022-12-18T14:49:24;21.85;;;8.90;;
75129;SDS011;63703;44.716;37.846;2022-12-18T14:52:03;20.27;;;7.90;;
75129;SDS011;63703;44.716;37.846;2022-12-18T14:54:31;21.08;;;7.68;;
75129;SDS011;63703;44.716;37.846;2022-12-18T14:57:00;19.30;;;7.70;;
75129;SDS011;63703;44.716;37.846;2022-12-18T14:59:28;20.13;;;9.40;;
75129;SDS011;63703;44.716;37.846;2022-12-18T15:02:03;22.67;;;10.10;;
75129;SDS011;63703;44.716;37.846;2022-12-18T15:04:48;15.95;;;7.28;;
75129;SDS011;63703;44.716;37.846;2022-12-18T15:07:26;20.70;;;7.78;;
75129;SDS011;63703;44.716;37.846;2022-12-18T15:10:12;19.60;;;7.13;;
75129;SDS011;63703;44.716;37.846;2022-12-18T15:12:47;11.48;;;5.97;;
75129;SDS011;63703;44.716;37.846;2022-12-18T15:18:03;14.55;;;7.20;;
75129;SDS011;63703;44.716;37.846;2022-12-18T15:20:42;14.38;;;5.57;;
75129;SDS011;63703;44.716;37.846;2022-12-18T15:25:45;13.60;;;6.20;;
75129;SDS011;63703;44.716;37.846;2022-12-18T15:28:17;23.02;;;6.10;;
75129;SDS011;63703;44.716;37.846;2022-12-18T15:31:33;15.15;;;6.75;;
75129;SDS011;63703;44.716;37.846;2022-12-18T15:36:30;18.65;;;7.90;;
75129;SDS011;63703;44.716;37.846;2022-12-18T15:38:56;14.57;;;7.72;;
75129;SDS011;63703;44.716;37.846;2022-12-18T15:41:25;19.88;;;8.25;;
75129;SDS011;63703;44.716;37.846;2022-12-18T15:43:52;16.13;;;7.45;;
75129;SDS011;63703;44.716;37.846;2022-12-18T15:46:19;16.63;;;7.78;;
75129;SDS011;63703;44.716;37.846;2022-12-18T15:48:48;9.57;;;4.68;;
75129;SDS011;63703;44.716;37.846;2022-12-18T15:51:22;13.73;;;5.45;;
75129;SDS011;63703;44.716;37.846;2022-12-18T15:53:52;10.55;;;4.20;;
75129;SDS011;63703;44.716;37.846;2022-12-18T15:56:20;13.68;;;7.50;;
75129;SDS011;63703;44.716;37.846;2022-12-18T15:59:12;8.98;;;4.20;;
75129;SDS011;63703;44.716;37.846;2022-12-18T16:01:40;6.28;;;2.88;;
75129;SDS011;63703;44.716;37.846;2022-12-18T16:04:11;7.40;;;3.78;;
75129;SDS011;63703;44.716;37.846;2022-12-18T16:06:39;6.88;;;3.75;;
75129;SDS011;63703;44.716;37.846;2022-12-18T16:09:05;9.48;;;4.45;;
75129;SDS011;63703;44.716;37.846;2022-12-18T16:11:32;7.72;;;5.03;;
75129;SDS011;63703;44.716;37.846;2022-12-18T16:14:17;6.40;;;3.47;;
75129;SDS011;63703;44.716;37.846;2022-12-18T16:16:49;6.63;;;4.07;;
75129;SDS011;63703;44.716;37.846;2022-12-18T16:19:16;5.97;;;2.58;;
75129;SDS011;63703;44.716;37.846;2022-12-18T16:21:42;6.90;;;2.72;;
75129;SDS011;63703;44.716;37.846;2022-12-18T16:24:12;6.65;;;2.70;;
75129;SDS011;63703;44.716;37.846;2022-12-18T16:26:43;5.88;;;2.30;;
75129;SDS011;63703;44.716;37.846;2022-12-18T16:29:09;5.93;;;2.35;;
75129;SDS011;63703;44.716;37.846;2022-12-18T16:31:36;5.38;;;2.47;;
75129;SDS011;63703;44.716;37.846;2022-12-18T16:34:09;7.35;;;2.80;;
75129;SDS011;63703;44.716;37.846;2022-12-18T16:36:35;6.00;;;2.85;;
75129;SDS011;63703;44.716;37.846;2022-12-18T16:39:04;6.65;;;2.58;;
75129;SDS011;63703;44.716;37.846;2022-12-18T16:41:30;5.53;;;2.58;;
75129;SDS011;63703;44.716;37.846;2022-12-18T16:43:57;6.38;;;3.10;;
75129;SDS011;63703;44.716;37.846;2022-12-18T16:46:26;5.63;;;2.88;;
75129;SDS011;63703;44.716;37.846;2022-12-18T16:48:52;6.43;;;4.72;;
75129;SDS011;63703;44.716;37.846;2022-12-18T16:51:18;6.32;;;2.92;;
75129;SDS011;63703;44.716;37.846;2022-12-18T16:53:44;5.78;;;3.53;;